Time;durP1;ratioP1;P1;durP2;ratioP2;P2;SDS_P1;SDS_P2;PMS_P1;PMS_P2;Temp;Humidity;BMP_temperature;BMP_pressure;BME280_temperature;BME280_humidity;BME280_pressure;Samples;Min_cycle;Max_cycle;Signal;HPM_P1;HPM_P2
2023/08/11 00:02:07;;;;;;;4.97;4.67;;;;;;;10.96;100.00;97520.09;5017431;28;20306;-62
2023/08/11 00:04:35;;;;;;;5.53;5.23;;;;;;;10.95;100.00;97518.47;5014928;28;20972;-63
2023/08/11 00:07:04;;;;;;;6.17;5.70;;;;;;;10.93;100.00;97516.97;5010582;28;20239;-63
2023/08/11 00:09:32;;;;;;;5.77;5.27;;;;;;;10.90;100.00;97510.22;5011500;28;20212;-63
2023/08/11 00:11:59;;;;;;;6.03;5.63;;;;;;;10.86;100.00;97512.41;5015713;28;20292;-64
2023/08/11 00:14:27;;;;;;;5.50;5.00;;;;;;;10.79;100.00;97523.88;5015019;28;20388;-63
2023/08/11 00:16:56;;;;;;;5.43;5.13;;;;;;;10.75;100.00;97528.72;5014437;28;20274;-65
2023/08/11 00:19:25;;;;;;;5.30;5.00;;;;;;;10.64;100.00;97519.34;4972115;28;20844;-65
2023/08/11 00:21:53;;;;;;;5.53;5.13;;;;;;;10.62;100.00;97518.69;5017110;28;20215;-66
2023/08/11 00:24:21;;;;;;;5.73;5.33;;;;;;;10.64;100.00;97522.00;5016609;28;20834;-64
2023/08/11 00:26:49;;;;;;;5.80;5.40;;;;;;;10.69;100.00;97524.94;5016921;28;20232;-64
2023/08/11 00:29:17;;;;;;;5.93;5.53;;;;;;;10.63;100.00;97524.84;4957759;28;21635;-64
2023/08/11 00:31:45;;;;;;;5.07;4.70;;;;;;;10.55;100.00;97520.41;4987693;28;20208;-64
2023/08/11 00:34:13;;;;;;;5.80;5.40;;;;;;;10.40;100.00;97510.53;5015906;28;20254;-64
2023/08/11 00:36:42;;;;;;;6.60;4.87;;;;;;;10.38;100.00;97528.41;5020505;28;20219;-66
2023/08/11 00:39:10;;;;;;;4.67;4.27;;;;;;;10.22;100.00;97512.63;5019222;28;20234;-66
2023/08/11 00:41:37;;;;;;;5.07;4.43;;;;;;;10.24;100.00;97531.81;5018959;28;20291;-64
2023/08/11 00:44:05;;;;;;;5.47;5.07;;;;;;;10.11;100.00;97519.97;5014792;28;20327;-65
2023/08/11 00:46:33;;;;;;;5.43;4.57;;;;;;;10.17;100.00;97530.84;5019155;28;20372;-63
2023/08/11 00:49:01;;;;;;;4.80;4.50;;;;;;;10.15;100.00;97533.66;5013311;28;20243;-64
2023/08/11 00:51:29;;;;;;;4.70;4.40;;;;;;;10.13;100.00;97531.19;5015527;28;20204;-64
2023/08/11 00:53:59;;;;;;;5.13;4.83;;;;;;;10.12;100.00;97534.84;5003560;28;20216;-65
2023/08/11 00:56:27;;;;;;;6.27;5.70;;;;;;;10.11;100.00;97532.34;4982132;28;20212;-65
2023/08/11 00:58:55;;;;;;;5.47;5.17;;;;;;;10.11;100.00;97537.66;5009637;28;20321;-64
2023/08/11 01:01:24;;;;;;;4.87;4.57;;;;;;;10.11;100.00;97533.19;5017730;28;20208;-64
2023/08/11 01:03:52;;;;;;;6.80;5.60;;;;;;;10.06;100.00;97532.88;4915228;28;20266;-63
2023/08/11 01:06:25;;;;;;;5.30;4.80;;;;;;;10.04;100.00;97531.41;5012399;28;20244;-63
2023/08/11 01:09:00;;;;;;;5.70;5.30;;;;;;;10.04;100.00;97529.59;5009101;28;22531;-64
2023/08/11 01:11:34;;;;;;;5.00;4.70;;;;;;;10.01;100.00;97532.56;5018752;28;20668;-64
2023/08/11 01:14:04;;;;;;;5.50;5.10;;;;;;;10.05;100.00;97538.34;5011848;28;20274;-64
2023/08/11 01:16:33;;;;;;;5.03;4.70;;;;;;;10.02;100.00;97533.41;5013889;28;20251;-64
2023/08/11 01:19:04;;;;;;;5.03;4.73;;;;;;;9.99;100.00;97526.59;5013745;28;20209;-64
2023/08/11 01:21:34;;;;;;;5.50;5.10;;;;;;;9.93;100.00;97530.78;5015241;28;20258;-64
2023/08/11 01:24:04;;;;;;;5.20;4.80;;;;;;;9.91;100.00;97529.28;5015565;28;20902;-64
2023/08/11 01:26:33;;;;;;;4.80;4.40;;;;;;;9.95;100.00;97530.59;5017083;28;20242;-64
2023/08/11 01:29:01;;;;;;;5.97;5.37;;;;;;;10.01;100.00;97531.75;4964951;28;21012;-63
2023/08/11 01:31:29;;;;;;;5.60;5.20;;;;;;;10.03;100.00;97535.03;5013677;28;20224;-63
2023/08/11 01:33:56;;;;;;;5.40;5.00;;;;;;;9.95;100.00;97535.88;5007667;28;20316;-63
2023/08/11 01:36:25;;;;;;;6.17;5.70;;;;;;;9.96;100.00;97535.72;5018369;28;20287;-63
2023/08/11 01:38:52;;;;;;;6.10;5.60;;;;;;;9.94;100.00;97535.06;4926983;28;21275;-64
2023/08/11 01:41:22;;;;;;;6.53;5.03;;;;;;;9.86;100.00;97521.88;4961027;28;20295;-64
2023/08/11 01:43:51;;;;;;;6.27;5.13;;;;;;;9.95;100.00;97539.38;5021520;28;20255;-64
2023/08/11 01:46:19;;;;;;;6.10;5.50;;;;;;;9.97;100.00;97544.47;5016875;28;20278;-64
2023/08/11 01:48:46;;;;;;;5.50;5.20;;;;;;;9.91;100.00;97537.22;5020153;28;20931;-63
2023/08/11 01:51:14;;;;;;;5.50;5.03;;;;;;;9.87;100.00;97541.22;5016991;28;20507;-63
2023/08/11 01:53:42;;;;;;;6.40;5.80;;;;;;;9.79;100.00;97537.59;5022176;28;20763;-63
2023/08/11 01:56:10;;;;;;;5.67;5.30;;;;;;;9.73;100.00;97540.94;5016870;28;20291;-64
2023/08/11 01:58:39;;;;;;;5.47;5.03;;;;;;;9.73;100.00;97535.66;5019498;28;20216;-63
2023/08/11 02:01:07;;;;;;;5.60;5.30;;;;;;;9.74;100.00;97539.09;4964381;28;20239;-63
2023/08/11 02:03:35;;;;;;;5.53;5.23;;;;;;;9.65;100.00;97541.78;5019949;28;20274;-63
2023/08/11 02:06:02;;;;;;;6.20;5.77;;;;;;;9.64;100.00;97536.63;5015030;28;20261;-62
2023/08/11 02:08:31;;;;;;;5.73;5.30;;;;;;;9.63;100.00;97546.41;5020438;28;20204;-63
2023/08/11 02:10:59;;;;;;;5.47;5.07;;;;;;;9.68;100.00;97543.28;4923704;28;20305;-62
2023/08/11 02:13:28;;;;;;;5.40;5.00;;;;;;;9.69;100.00;97540.44;5016869;28;20312;-65
2023/08/11 02:15:57;;;;;;;6.00;5.63;;;;;;;9.72;100.00;97541.94;5013641;28;20257;-63
2023/08/11 02:18:28;;;;;;;6.17;5.67;;;;;;;9.70;100.00;97542.09;5019303;28;20719;-63
2023/08/11 02:20:56;;;;;;;5.93;5.53;;;;;;;9.70;100.00;97543.94;5016780;28;20261;-62
2023/08/11 02:23:24;;;;;;;5.47;5.00;;;;;;;9.69;100.00;97548.38;5011733;28;20374;-64
2023/08/11 02:25:51;;;;;;;5.30;4.90;;;;;;;9.70;100.00;97549.22;5016210;28;20278;-64
2023/08/11 02:28:19;;;;;;;5.70;5.30;;;;;;;9.66;100.00;97543.44;5016420;28;20200;-63
2023/08/11 02:30:47;;;;;;;5.63;5.27;;;;;;;9.60;100.00;97545.91;4965845;28;20210;-65
2023/08/11 02:33:18;;;;;;;6.20;5.83;;;;;;;9.55;100.00;97549.09;5017830;28;20240;-64
2023/08/11 02:35:46;;;;;;;5.60;5.10;;;;;;;9.53;100.00;97557.16;5014042;28;20204;-64
2023/08/11 02:38:14;;;;;;;5.67;5.27;;;;;;;9.53;100.00;97553.72;5019608;28;20262;-63
2023/08/11 02:40:42;;;;;;;5.20;4.90;;;;;;;9.49;100.00;97558.50;5014092;28;20254;-64
2023/08/11 02:43:10;;;;;;;5.47;5.17;;;;;;;9.42;100.00;97557.53;5019139;28;20285;-64
2023/08/11 02:45:37;;;;;;;5.17;4.77;;;;;;;9.38;100.00;97561.50;4920810;28;20874;-62
2023/08/11 02:48:06;;;;;;;5.07;4.77;;;;;;;9.40;100.00;97568.25;5015366;28;20205;-62
2023/08/11 02:50:35;;;;;;;5.50;5.10;;;;;;;9.41;100.00;97563.81;5015237;28;20223;-62
2023/08/11 02:53:04;;;;;;;5.33;4.97;;;;;;;9.38;100.00;97564.97;5018669;28;20201;-64
2023/08/11 02:55:32;;;;;;;6.40;5.90;;;;;;;9.44;100.00;97563.47;5015125;28;20228;-62
2023/08/11 02:57:59;;;;;;;5.73;5.33;;;;;;;9.45;100.00;97566.94;5019405;28;20254;-63
2023/08/11 03:00:28;;;;;;;6.63;4.90;;;;;;;9.44;100.00;97571.41;5015896;28;20218;-63
2023/08/11 03:02:56;;;;;;;5.77;5.30;;;;;;;9.44;100.00;97571.41;5019509;28;20371;-62
2023/08/11 03:05:24;;;;;;;5.43;5.13;;;;;;;9.44;100.00;97568.75;4966401;28;20333;-62
2023/08/11 03:07:53;;;;;;;5.43;5.03;;;;;;;9.38;100.00;97559.66;5015628;28;20229;-62
2023/08/11 03:10:21;;;;;;;5.80;5.33;;;;;;;9.33;100.00;97561.19;5015228;28;20208;-63
2023/08/11 03:12:49;;;;;;;5.30;5.00;;;;;;;9.33;100.00;97563.81;5020303;28;20258;-63
2023/08/11 03:15:17;;;;;;;5.30;4.93;;;;;;;9.25;100.00;97562.81;4927297;28;20233;-63
2023/08/11 03:17:44;;;;;;;5.23;4.93;;;;;;;9.21;100.00;97569.44;5023095;28;20673;-64
2023/08/11 03:20:12;;;;;;;6.03;5.43;;;;;;;9.24;100.00;97569.09;5012998;28;20575;-64
2023/08/11 03:22:41;;;;;;;6.20;5.80;;;;;;;9.22;100.00;97571.09;5015155;28;20212;-63
2023/08/11 03:25:11;;;;;;;5.63;5.23;;;;;;;9.21;100.00;97564.16;5014805;28;20699;-62
2023/08/11 03:27:41;;;;;;;6.23;5.83;;;;;;;9.23;100.00;97567.44;5016521;28;20197;-62
2023/08/11 03:30:11;;;;;;;5.77;5.37;;;;;;;9.21;100.00;97571.25;5010946;28;20212;-64
2023/08/11 03:32:40;;;;;;;6.23;5.73;;;;;;;9.17;100.00;97570.75;5017423;28;20298;-63
2023/08/11 03:35:08;;;;;;;6.70;5.97;;;;;;;9.14;100.00;97571.09;4968404;28;20231;-63
2023/08/11 03:37:36;;;;;;;5.83;5.43;;;;;;;9.11;100.00;97566.97;4955003;28;20331;-62
2023/08/11 03:40:05;;;;;;;5.20;4.90;;;;;;;9.08;100.00;97569.09;5018275;28;20212;-65
2023/08/11 03:42:34;;;;;;;5.97;5.57;;;;;;;9.04;100.00;97570.44;4948995;28;20311;-63
2023/08/11 03:45:02;;;;;;;5.60;5.30;;;;;;;9.00;100.00;97574.41;5017637;28;20256;-63
2023/08/11 03:47:30;;;;;;;6.07;5.60;;;;;;;9.03;100.00;97582.00;4846932;28;20279;-63
2023/08/11 03:49:58;;;;;;;7.43;6.20;;;;;;;9.04;100.00;97573.88;5018423;28;20197;-65
2023/08/11 03:52:25;;;;;;;5.83;5.43;;;;;;;9.00;100.00;97577.03;4948958;28;20377;-63
2023/08/11 03:54:53;;;;;;;6.10;5.60;;;;;;;8.93;100.00;97583.00;5018037;28;20299;-63
2023/08/11 03:57:21;;;;;;;5.80;5.30;;;;;;;8.92;100.00;97581.34;5013395;28;20324;-62
2023/08/11 03:59:50;;;;;;;5.07;4.67;;;;;;;8.91;100.00;97584.97;5016651;28;20259;-63
2023/08/11 04:02:17;;;;;;;5.13;4.80;;;;;;;8.89;100.00;97584.28;4963640;28;20285;-63
2023/08/11 04:04:45;;;;;;;5.47;5.10;;;;;;;8.97;100.00;97578.19;5019330;28;20278;-63
2023/08/11 04:07:13;;;;;;;6.50;5.90;;;;;;;9.00;100.00;97583.13;4960202;28;20239;-63
2023/08/11 04:09:44;;;;;;;5.93;5.57;;;;;;;8.97;100.00;97583.47;5015440;28;20241;-63
2023/08/11 04:12:11;;;;;;;6.33;5.93;;;;;;;8.83;100.00;97562.00;5013813;28;20328;-63
2023/08/11 04:14:39;;;;;;;5.67;5.27;;;;;;;8.91;100.00;97579.69;5016127;28;20231;-65
2023/08/11 04:17:08;;;;;;;6.10;5.60;;;;;;;8.85;100.00;97585.59;4920441;28;21075;-67
2023/08/11 04:19:36;;;;;;;5.90;5.40;;;;;;;8.86;100.00;97584.59;5019167;28;20278;-65
2023/08/11 04:22:05;;;;;;;6.27;5.77;;;;;;;8.87;100.00;97586.25;5010833;28;20303;-64
2023/08/11 04:24:33;;;;;;;6.57;6.07;;;;;;;8.91;100.00;97590.25;5013350;28;20239;-66
2023/08/11 04:27:01;;;;;;;6.10;5.70;;;;;;;8.98;100.00;97588.59;4961415;28;20511;-67
2023/08/11 04:29:28;;;;;;;6.47;6.00;;;;;;;8.98;100.00;97580.69;5019028;28;20208;-65
2023/08/11 04:31:56;;;;;;;5.90;5.50;;;;;;;8.99;100.00;97586.78;5010970;28;20784;-65
2023/08/11 04:34:25;;;;;;;6.87;5.80;;;;;;;8.99;100.00;97589.41;5016389;28;20320;-65
2023/08/11 04:36:53;;;;;;;5.90;5.50;;;;;;;9.03;100.00;97589.94;4968245;28;20294;-63
2023/08/11 04:39:21;;;;;;;5.93;5.53;;;;;;;9.13;100.00;97590.59;5014804;28;20679;-66
2023/08/11 04:41:49;;;;;;;6.63;5.83;;;;;;;9.21;100.00;97581.84;4973992;28;21006;-67
2023/08/11 04:44:17;;;;;;;5.63;5.20;;;;;;;9.19;100.00;97587.28;5014227;28;20235;-63
2023/08/11 04:46:45;;;;;;;5.50;5.10;;;;;;;9.25;100.00;97583.97;5014355;28;20909;-66
2023/08/11 04:49:12;;;;;;;5.90;5.47;;;;;;;9.37;100.00;97594.22;5015627;28;20297;-65
2023/08/11 04:51:42;;;;;;;6.20;5.67;;;;;;;9.50;100.00;97601.66;4959430;28;20744;-62
2023/08/11 04:54:11;;;;;;;6.10;5.70;;;;;;;9.60;100.00;97598.81;4980008;28;20351;-66
2023/08/11 04:56:39;;;;;;;5.83;5.43;;;;;;;9.70;100.00;97602.13;4971685;28;20212;-65
2023/08/11 04:59:07;;;;;;;6.23;5.70;;;;;;;9.79;100.00;97603.75;5013444;28;20680;-65
2023/08/11 05:01:34;;;;;;;6.57;6.00;;;;;;;9.92;100.00;97597.94;4963960;28;20200;-63
2023/08/11 05:04:04;;;;;;;6.83;6.23;;;;;;;10.08;100.00;97602.38;5017584;28;20228;-65
2023/08/11 05:06:32;;;;;;;7.03;6.43;;;;;;;10.25;100.00;97599.66;4997507;28;20236;-66
2023/08/11 05:09:01;;;;;;;6.50;6.03;;;;;;;10.38;100.00;97602.56;4979875;28;20688;-66
2023/08/11 05:11:30;;;;;;;7.30;6.60;;;;;;;10.45;100.00;97612.53;5002872;28;20629;-66
2023/08/11 05:13:58;;;;;;;6.63;6.00;;;;;;;10.59;100.00;97600.34;4988090;28;20241;-64
2023/08/11 05:16:26;;;;;;;6.43;5.63;;;;;;;10.74;100.00;97595.97;5018581;28;20564;-66
2023/08/11 05:18:54;;;;;;;6.37;5.80;;;;;;;10.63;100.00;97594.53;5019991;28;20207;-66
2023/08/11 05:21:22;;;;;;;5.70;5.20;;;;;;;10.71;100.00;97597.13;5002755;28;20654;-66
2023/08/11 05:23:50;;;;;;;5.90;5.50;;;;;;;10.95;100.00;97591.84;4927695;28;20237;-64
2023/08/11 05:26:19;;;;;;;5.80;5.40;;;;;;;11.07;100.00;97593.13;5019893;28;20247;-64
2023/08/11 05:28:47;;;;;;;6.17;5.67;;;;;;;11.09;100.00;97593.75;5016134;28;20329;-63
2023/08/11 05:31:15;;;;;;;5.10;4.80;;;;;;;11.21;100.00;97577.41;5019497;28;20204;-64
2023/08/11 05:33:42;;;;;;;8.90;6.13;;;;;;;11.37;100.00;97595.03;4962134;28;20237;-63
2023/08/11 05:36:10;;;;;;;6.10;5.70;;;;;;;11.41;100.00;97591.00;5021062;28;20203;-63
2023/08/11 05:38:38;;;;;;;6.13;5.73;;;;;;;11.63;100.00;97602.59;4967450;28;20985;-62
2023/08/11 05:41:06;;;;;;;6.23;5.83;;;;;;;11.68;100.00;97600.22;5003252;28;20292;-62
2023/08/11 05:43:36;;;;;;;6.17;5.77;;;;;;;11.73;100.00;97579.25;4993174;28;21469;-63
2023/08/11 05:46:06;;;;;;;6.07;5.70;;;;;;;12.08;100.00;97592.03;5010496;28;20234;-63
2023/08/11 05:48:35;;;;;;;5.73;5.33;;;;;;;12.12;100.00;97592.47;5023952;28;20266;-65
2023/08/11 05:51:04;;;;;;;6.70;6.00;;;;;;;12.40;100.00;97591.81;5026920;28;20212;-65
2023/08/11 05:53:33;;;;;;;6.47;6.07;;;;;;;12.44;100.00;97593.09;4947893;28;21546;-64
2023/08/11 05:56:02;;;;;;;7.43;6.20;;;;;;;12.53;100.00;97602.63;4982191;28;20215;-64
2023/08/11 05:58:30;;;;;;;7.73;7.00;;;;;;;12.63;100.00;97594.34;4987747;28;20441;-63
2023/08/11 06:01:00;;;;;;;6.83;6.30;;;;;;;12.90;100.00;97592.00;4999348;28;20209;-64
2023/08/11 06:03:30;;;;;;;7.03;6.63;;;;;;;12.92;100.00;97571.34;4997564;28;20263;-63
2023/08/11 06:06:04;;;;;;;6.77;6.37;;;;;;;13.34;100.00;97589.31;4998953;28;20258;-65
2023/08/11 06:08:31;;;;;;;5.80;5.40;;;;;;;13.52;100.00;97594.22;5018833;28;20220;-64
2023/08/11 06:10:59;;;;;;;6.13;5.73;;;;;;;13.48;100.00;97591.13;4958653;28;20200;-65
2023/08/11 06:13:28;;;;;;;5.80;5.30;;;;;;;13.53;100.00;97585.22;5022256;28;20243;-64
2023/08/11 06:15:56;;;;;;;6.40;5.73;;;;;;;13.66;100.00;97584.50;4963539;28;20294;-64
2023/08/11 06:18:25;;;;;;;6.23;5.83;;;;;;;13.94;100.00;97587.13;5017247;28;20230;-66
2023/08/11 06:20:53;;;;;;;6.10;5.70;;;;;;;13.81;100.00;97593.19;5013692;28;20282;-65
2023/08/11 06:23:20;;;;;;;6.17;5.70;;;;;;;13.97;100.00;97589.41;5011852;28;20224;-66
2023/08/11 06:25:48;;;;;;;6.00;5.60;;;;;;;14.10;100.00;97579.84;4891824;28;21123;-63
2023/08/11 06:28:17;;;;;;;6.33;5.97;;;;;;;14.02;100.00;97580.81;5020355;28;20219;-63
2023/08/11 06:30:45;;;;;;;5.73;5.33;;;;;;;14.29;100.00;97576.44;5014463;28;20250;-62
2023/08/11 06:33:12;;;;;;;5.63;5.23;;;;;;;14.42;100.00;97578.34;5018857;28;20306;-63
2023/08/11 06:35:42;;;;;;;5.57;5.17;;;;;;;14.58;100.00;97579.84;4951417;28;20339;-65
2023/08/11 06:38:10;;;;;;;5.20;4.90;;;;;;;14.71;100.00;97584.44;5016863;28;20254;-62
2023/08/11 06:40:38;;;;;;;5.97;5.57;;;;;;;14.96;100.00;97570.53;4960307;28;21003;-63
2023/08/11 06:43:06;;;;;;;5.33;5.03;;;;;;;15.02;100.00;97577.75;5019831;28;20900;-63
2023/08/11 06:45:34;;;;;;;5.50;5.10;;;;;;;15.08;100.00;97576.09;4963886;28;21632;-62
2023/08/11 06:48:02;;;;;;;5.47;5.03;;;;;;;15.15;100.00;97578.78;5018141;28;20223;-62
2023/08/11 06:50:30;;;;;;;5.37;4.97;;;;;;;15.33;100.00;97588.84;5012238;28;20236;-61
2023/08/11 06:52:59;;;;;;;5.60;5.20;;;;;;;15.53;100.00;97583.50;5017223;28;20201;-63
2023/08/11 06:55:27;;;;;;;5.40;5.00;;;;;;;15.59;100.00;97593.38;5014094;28;20286;-63
2023/08/11 06:57:54;;;;;;;5.07;4.77;;;;;;;15.73;100.00;97591.50;5016110;28;20212;-65
2023/08/11 07:00:23;;;;;;;5.07;4.77;;;;;;;15.91;100.00;97592.78;4928690;28;20338;-64
2023/08/11 07:02:51;;;;;;;5.50;5.00;;;;;;;16.00;100.00;97590.69;5011146;28;20282;-64
2023/08/11 07:05:19;;;;;;;5.43;4.57;;;;;;;16.05;100.00;97593.53;4957388;28;20208;-65
2023/08/11 07:07:47;;;;;;;4.80;4.60;;;;;;;16.19;100.00;97599.69;5014329;28;20228;-63
2023/08/11 07:10:16;;;;;;;4.97;4.57;;;;;;;16.29;100.00;97604.59;5017453;28;20228;-63
2023/08/11 07:12:43;;;;;;;4.67;4.37;;;;;;;16.42;100.00;97599.19;5018878;28;20272;-64
2023/08/11 07:15:11;;;;;;;5.30;4.87;;;;;;;16.45;100.00;97609.47;4967088;28;20564;-63
2023/08/11 07:17:39;;;;;;;4.90;4.60;;;;;;;16.47;100.00;97602.03;5018113;28;20220;-64
2023/08/11 07:20:08;;;;;;;4.77;4.47;;;;;;;16.51;100.00;97586.41;4961738;28;20238;-63
2023/08/11 07:22:35;;;;;;;5.03;4.70;;;;;;;16.61;100.00;97608.16;5015074;28;20304;-64
2023/08/11 07:25:04;;;;;;;5.00;4.60;;;;;;;16.64;100.00;97597.03;5011427;28;20244;-65
2023/08/11 07:27:33;;;;;;;4.83;4.53;;;;;;;16.90;100.00;97602.50;5016517;28;20231;-62
2023/08/11 07:30:00;;;;;;;6.83;6.23;;;;;;;16.92;100.00;97603.09;5018646;28;20208;-63
2023/08/11 07:32:28;;;;;;;6.93;5.07;;;;;;;17.16;100.00;97604.22;5017132;28;20216;-63
2023/08/11 07:34:56;;;;;;;4.67;4.37;;;;;;;17.30;100.00;97610.31;4885736;28;20239;-63
2023/08/11 07:37:23;;;;;;;4.67;4.37;;;;;;;17.41;100.00;97614.13;5013451;28;20232;-63
2023/08/11 07:39:51;;;;;;;4.60;4.23;;;;;;;17.43;100.00;97614.75;5017851;28;20231;-62
2023/08/11 07:42:19;;;;;;;5.33;4.83;;;;;;;17.69;100.00;97623.59;5016020;28;20271;-62
2023/08/11 07:44:48;;;;;;;4.53;4.33;;;;;;;17.79;100.00;97623.09;5014339;28;20781;-63
2023/08/11 07:47:15;;;;;;;4.27;4.07;;;;;;;17.62;100.00;97620.16;5017563;28;20224;-62
2023/08/11 07:49:43;;;;;;;4.63;4.30;;;;;;;17.73;100.00;97619.44;4966857;28;20219;-64
2023/08/11 07:52:10;;;;;;;4.23;4.03;;;;;;;17.84;100.00;97622.47;5016025;28;20270;-62
2023/08/11 07:54:38;;;;;;;12.17;11.17;;;;;;;18.11;100.00;97617.69;4965733;28;20457;-62
2023/08/11 07:57:06;;;;;;;5.80;5.40;;;;;;;18.28;100.00;97622.44;5023298;28;20212;-64
2023/08/11 07:59:34;;;;;;;4.43;3.87;;;;;;;18.34;100.00;97625.06;5014938;28;20218;-63
2023/08/11 08:02:05;;;;;;;3.90;3.60;;;;;;;18.33;100.00;97617.22;5018669;28;20231;-62
2023/08/11 08:04:33;;;;;;;4.40;4.20;;;;;;;18.52;100.00;97621.56;4891086;28;20236;-63
2023/08/11 08:07:00;;;;;;;3.90;3.70;;;;;;;18.70;100.00;97627.13;5014908;28;20515;-67
2023/08/11 08:09:28;;;;;;;4.40;4.10;;;;;;;18.94;100.00;97622.69;5015204;28;20753;-65
2023/08/11 08:11:56;;;;;;;3.87;3.67;;;;;;;18.83;100.00;97620.78;5016050;28;20270;-64
2023/08/11 08:14:24;;;;;;;3.83;3.50;;;;;;;19.05;100.00;97624.63;5013873;28;20304;-64
2023/08/11 08:16:52;;;;;;;3.73;3.53;;;;;;;19.35;100.00;97628.34;5016477;28;20266;-65
2023/08/11 08:19:21;;;;;;;3.60;3.40;;;;;;;19.33;100.00;97617.81;4967389;28;20559;-65
2023/08/11 08:21:49;;;;;;;3.57;3.37;;;;;;;19.24;100.00;97617.34;5025238;28;20219;-65
2023/08/11 08:24:17;;;;;;;6.37;5.83;;;;;;;19.31;100.00;97627.16;4968397;28;20414;-65
2023/08/11 08:26:47;;;;;;;5.57;5.07;;;;;;;19.54;100.00;97621.03;5019085;28;20220;-64
2023/08/11 08:29:15;;;;;;;4.10;3.80;;;;;;;19.48;100.00;97616.56;5017032;28;20215;-64
2023/08/11 08:31:43;;;;;;;3.13;2.93;;;;;;;19.65;100.00;97617.53;5017205;28;21669;-64
2023/08/11 08:34:11;;;;;;;3.00;2.80;;;;;;;19.54;100.00;97623.72;5015816;28;20280;-64
2023/08/11 08:36:40;;;;;;;3.63;3.33;;;;;;;19.59;100.00;97618.47;5017262;28;20628;-64
2023/08/11 08:39:08;;;;;;;3.70;3.40;;;;;;;19.80;100.00;97614.41;4880257;28;20577;-62
2023/08/11 08:41:39;;;;;;;3.83;2.87;;;;;;;19.93;100.00;97620.63;5016447;28;20216;-62
2023/08/11 08:44:06;;;;;;;3.63;3.27;;;;;;;19.83;100.00;97613.09;5015196;28;20302;-61
2023/08/11 08:46:35;;;;;;;3.27;3.07;;;;;;;20.14;100.00;97615.72;5022064;28;20236;-60
2023/08/11 08:49:10;;;;;;;3.60;3.30;;;;;;;20.03;100.00;97603.91;4968664;28;20227;-63
2023/08/11 08:51:40;;;;;;;3.53;3.33;;;;;;;20.12;100.00;97607.88;5019298;28;20262;-64
2023/08/11 08:54:09;;;;;;;4.07;3.87;;;;;;;20.45;100.00;97613.66;5016167;28;20224;-64
2023/08/11 08:56:38;;;;;;;3.30;3.10;;;;;;;20.58;100.00;97610.72;5020621;28;20204;-64
2023/08/11 08:59:06;;;;;;;3.47;3.07;;;;;;;20.61;100.00;97612.09;4967272;28;20707;-65
2023/08/11 09:01:35;;;;;;;3.47;3.27;;;;;;;20.65;100.00;97608.69;5017206;28;20470;-64
2023/08/11 09:04:04;;;;;;;3.30;3.10;;;;;;;20.80;100.00;97613.59;5015421;28;20725;-64
2023/08/11 09:06:32;;;;;;;5.13;2.93;;;;;;;20.68;98.15;97615.50;5021280;28;20293;-64
2023/08/11 09:09:01;;;;;;;3.27;2.97;;;;;;;21.02;100.00;97607.53;4886845;28;20249;-64
2023/08/11 09:11:30;;;;;;;3.07;2.87;;;;;;;20.92;99.00;97607.34;5019354;28;20336;-62
2023/08/11 09:14:02;;;;;;;3.30;2.80;;;;;;;21.13;100.00;97599.66;5016416;28;20259;-65
2023/08/11 09:16:31;;;;;;;4.17;3.97;;;;;;;21.29;97.83;97604.22;5019456;28;20200;-64
2023/08/11 09:18:59;;;;;;;3.87;3.57;;;;;;;21.12;96.61;97604.19;5016244;28;20200;-64
2023/08/11 09:21:27;;;;;;;3.10;2.90;;;;;;;21.38;92.12;97602.75;5021579;28;20217;-64
2023/08/11 09:23:56;;;;;;;6.13;3.00;;;;;;;21.36;97.72;97598.69;4968549;28;21123;-63
2023/08/11 09:26:25;;;;;;;3.20;3.00;;;;;;;21.67;98.69;97594.63;5022270;28;20341;-63
2023/08/11 09:28:54;;;;;;;3.27;3.07;;;;;;;21.66;94.13;97597.59;5019223;28;20311;-63
2023/08/11 09:31:22;;;;;;;3.50;3.27;;;;;;;21.73;91.86;97589.31;5020935;28;20208;-63
2023/08/11 09:33:50;;;;;;;3.80;3.60;;;;;;;21.68;95.05;97592.78;4968435;28;20631;-63
2023/08/11 09:36:18;;;;;;;3.00;2.90;;;;;;;21.64;nan;97578.16;5019447;28;20227;-63
2023/08/11 09:38:46;;;;;;;5.57;5.17;;;;;;;21.69;nan;97589.81;4885068;28;20394;-65
2023/08/11 09:41:15;;;;;;;3.33;3.13;;;;;;;21.97;nan;97596.16;5021640;28;20203;-64
2023/08/11 09:43:48;;;;;;;3.13;2.83;;;;;;;21.96;nan;97594.53;5018284;28;20778;-65
2023/08/11 09:46:16;;;;;;;3.17;2.90;;;;;;;22.07;nan;97594.66;5024261;28;20782;-64
2023/08/11 09:48:52;;;;;;;3.03;2.83;;;;;;;22.07;nan;97592.81;5016373;28;20765;-63
2023/08/11 09:51:21;;;;;;;2.90;2.50;;;;;;;22.23;nan;97593.00;5019542;28;20208;-63
2023/08/11 09:53:49;;;;;;;2.40;2.30;;;;;;;22.30;nan;97587.41;5014082;28;20228;-63
2023/08/11 09:56:18;;;;;;;2.53;2.33;;;;;;;22.30;nan;97590.91;5019648;28;20213;-63
2023/08/11 09:58:52;;;;;;;2.60;2.20;;;;;;;22.61;nan;97585.13;4968613;28;20219;-62
2023/08/11 10:01:20;;;;;;;2.23;2.13;;;;;;;22.45;nan;97576.81;5018454;28;20211;-64
2023/08/11 10:03:48;;;;;;;2.70;2.20;;;;;;;22.51;nan;97575.81;5016768;28;20259;-63
2023/08/11 10:06:20;;;;;;;2.43;2.33;;;;;;;22.63;nan;97575.69;5019007;28;20569;-62
2023/08/11 10:08:50;;;;;;;3.00;2.80;;;;;;;22.60;nan;97581.59;4961623;28;20446;-64
2023/08/11 10:11:19;;;;;;;2.60;2.50;;;;;;;22.70;nan;97578.22;5020696;28;20214;-64
2023/08/11 10:13:49;;;;;;;2.67;2.47;;;;;;;22.79;nan;97579.38;4885377;28;21523;-64
2023/08/11 10:16:17;;;;;;;3.47;3.10;;;;;;;22.67;nan;97576.00;5015778;28;20591;-64
2023/08/11 10:18:45;;;;;;;3.03;2.83;;;;;;;22.76;nan;97563.69;5013587;28;20203;-64
2023/08/11 10:21:13;;;;;;;3.57;3.37;;;;;;;22.84;nan;97576.72;5019244;28;20205;-63
2023/08/11 10:23:41;;;;;;;4.73;4.37;;;;;;;22.82;nan;97578.88;5016113;28;20235;-63
2023/08/11 10:26:09;;;;;;;3.43;2.97;;;;;;;23.02;nan;97576.63;5018868;28;20557;-62
2023/08/11 10:28:37;;;;;;;3.30;2.70;;;;;;;23.08;nan;97581.84;5018994;28;20274;-61
2023/08/11 10:31:07;;;;;;;2.57;2.47;;;;;;;23.23;nan;97574.94;4893036;28;20223;-63
2023/08/11 10:33:34;;;;;;;3.10;2.90;;;;;;;23.07;nan;97585.63;5016886;28;20304;-66
2023/08/11 10:36:03;;;;;;;3.30;2.87;;;;;;;23.12;nan;97588.38;4983292;28;20213;-64
2023/08/11 10:38:32;;;;;;;3.03;2.83;;;;;;;23.12;nan;97577.56;5019683;28;20832;-64
2023/08/11 10:41:04;;;;;;;3.60;3.40;;;;;;;23.22;nan;97578.72;5013505;28;20569;-65
2023/08/11 10:43:33;;;;;;;2.90;2.80;;;;;;;23.34;nan;97584.81;5017969;28;20242;-65
2023/08/11 10:46:22;;;;;;;3.10;2.70;;;;;;;23.22;nan;97581.41;4981322;28;20216;-62
2023/08/11 10:48:51;;;;;;;4.37;3.13;;;;;;;23.24;nan;97581.97;5018670;28;20236;-61
2023/08/11 10:51:30;;;;;;;3.50;3.20;;;;;;;23.35;nan;97572.94;5014861;28;20212;-62
2023/08/11 10:54:01;;;;;;;3.70;3.23;;;;;;;23.39;nan;97567.81;5030436;28;20228;-64
2023/08/11 10:56:33;;;;;;;3.13;2.93;;;;;;;23.53;nan;97576.31;5025806;28;20201;-62
2023/08/11 10:59:18;;;;;;;2.67;2.57;;;;;;;23.35;nan;97567.53;4992016;28;20836;-64
2023/08/11 11:01:50;;;;;;;2.50;2.40;;;;;;;23.60;nan;97570.69;4985137;28;21709;-64
2023/08/11 11:04:21;;;;;;;2.50;2.40;;;;;;;23.48;nan;97578.97;5013876;28;20224;-64
2023/08/11 11:06:50;;;;;;;2.80;2.60;;;;;;;23.42;nan;97573.53;5017326;28;20310;-64
2023/08/11 11:09:18;;;;;;;2.57;2.37;;;;;;;23.55;nan;97569.56;5015695;28;20303;-64
2023/08/11 11:11:51;;;;;;;3.13;2.83;;;;;;;23.38;nan;97558.91;5016164;28;20682;-63
2023/08/11 11:14:19;;;;;;;3.13;2.90;;;;;;;23.63;nan;97570.97;5005102;28;20228;-64
2023/08/11 11:16:48;;;;;;;2.80;2.70;;;;;;;23.63;nan;97576.38;4999327;28;20216;-63
2023/08/11 11:19:16;;;;;;;2.60;2.40;;;;;;;23.62;nan;97566.63;5017832;28;20201;-63
2023/08/11 11:21:44;;;;;;;2.27;2.17;;;;;;;23.80;nan;97568.09;5015342;28;20208;-63
2023/08/11 11:24:12;;;;;;;2.93;2.60;;;;;;;23.83;nan;97569.47;5016753;28;20223;-64
2023/08/11 11:26:42;;;;;;;5.73;5.33;;;;;;;23.83;nan;97562.16;5016024;28;20208;-63
2023/08/11 11:29:10;;;;;;;3.00;2.80;;;;;;;23.79;nan;97558.34;5014094;28;20232;-65
2023/08/11 11:31:39;;;;;;;2.73;2.53;;;;;;;23.79;nan;97557.56;5015872;28;20208;-64
2023/08/11 11:34:12;;;;;;;2.00;1.90;;;;;;;23.70;nan;97544.53;4973562;28;20227;-63
2023/08/11 11:36:42;;;;;;;3.13;2.93;;;;;;;24.06;nan;97562.88;4960526;28;20211;-63
2023/08/11 11:39:10;;;;;;;4.00;3.80;;;;;;;24.26;nan;97562.16;5016706;28;20192;-63